createdAt,value
2019-06-01T00:00:11.349Z,12.50
2019-06-01T00:02:38.379Z,12.60
2019-06-01T00:05:07.494Z,12.60
2019-06-01T00:07:36.094Z,12.60
2019-06-01T00:10:06.824Z,12.60
2019-06-01T00:12:35.454Z,12.50
2019-06-01T00:15:06.175Z,12.50
2019-06-01T00:17:34.779Z,12.40
2019-06-01T00:20:04.947Z,12.40
2019-06-01T00:22:33.495Z,12.50
2019-06-01T00:25:02.134Z,12.40
2019-06-01T00:27:31.123Z,12.40
2019-06-01T00:29:59.623Z,12.40
2019-06-01T00:32:28.195Z,12.40
2019-06-01T00:34:56.774Z,12.40
2019-06-01T00:37:25.323Z,12.40
2019-06-01T00:39:53.973Z,12.40
2019-06-01T00:42:22.519Z,12.50
2019-06-01T00:44:50.999Z,12.40
2019-06-01T00:47:19.673Z,12.40
2019-06-01T00:49:49.246Z,12.40
2019-06-01T00:52:17.780Z,12.30
2019-06-01T00:54:47.352Z,12.30
2019-06-01T00:57:15.972Z,12.30
2019-06-01T00:59:45.813Z,12.30
2019-06-01T01:02:14.682Z,12.30
2019-06-01T01:04:44.268Z,12.30
2019-06-01T01:07:12.893Z,12.30
2019-06-01T01:09:41.480Z,12.30
2019-06-01T01:12:10.354Z,12.20
2019-06-01T01:14:39.389Z,12.20
2019-06-01T01:17:07.979Z,12.20
2019-06-01T01:19:36.586Z,12.20
2019-06-01T01:22:05.788Z,12.10
2019-06-01T01:24:34.309Z,12.20
2019-06-01T01:27:02.861Z,12.20
2019-06-01T01:29:31.446Z,12.20
2019-06-01T01:32:01.238Z,12.20
2019-06-01T01:34:29.754Z,12.20
2019-06-01T01:36:58.310Z,12.10
2019-06-01T01:39:26.902Z,12.10
2019-06-01T01:41:56.323Z,12.10
2019-06-01T01:44:24.909Z,12.00
2019-06-01T01:46:54.772Z,12.00
2019-06-01T01:49:23.473Z,12.10
2019-06-01T01:51:52.836Z,12.20
2019-06-01T01:54:21.648Z,12.20
2019-06-01T01:56:50.128Z,12.20
2019-06-01T01:59:18.638Z,12.20
2019-06-01T02:01:47.274Z,12.20
2019-06-01T02:04:15.888Z,12.20
2019-06-01T02:06:44.446Z,12.20
2019-06-01T02:09:13.104Z,12.20
2019-06-01T02:11:41.691Z,12.30
2019-06-01T02:14:11.129Z,12.40
2019-06-01T02:16:39.827Z,12.50
2019-06-01T02:19:08.374Z,12.70
2019-06-01T02:21:36.885Z,12.80
2019-06-01T02:24:05.491Z,13.00
2019-06-01T02:26:34.054Z,12.90
2019-06-01T02:29:04.186Z,13.00
2019-06-01T02:31:41.858Z,13.10
2019-06-01T02:34:05.783Z,13.20
2019-06-01T02:36:34.357Z,13.30
2019-06-01T02:39:05.264Z,13.30
2019-06-01T02:41:34.056Z,13.30
2019-06-01T02:44:03.790Z,13.30
2019-06-01T02:46:35.616Z,13.40
2019-06-01T02:49:04.213Z,13.50
2019-06-01T02:51:33.473Z,13.60
2019-06-01T02:54:02.058Z,13.60
2019-06-01T02:56:30.618Z,13.60
2019-06-01T02:59:00.272Z,13.60
2019-06-01T03:01:35.618Z,13.50
2019-06-01T03:04:08.787Z,13.40
2019-06-01T03:06:39.395Z,13.40
2019-06-01T03:09:09.295Z,13.30
2019-06-01T03:11:39.869Z,13.10
2019-06-01T03:14:10.855Z,13.00
2019-06-01T03:16:41.602Z,13.00
2019-06-01T03:19:12.002Z,13.00
2019-06-01T03:21:43.696Z,13.00
2019-06-01T03:24:19.074Z,13.00
2019-06-01T03:26:47.868Z,13.00
2019-06-01T03:29:18.884Z,13.10
2019-06-01T03:31:48.513Z,13.20
2019-06-01T03:34:17.121Z,13.30
2019-06-01T03:36:45.799Z,13.40
2019-06-01T03:39:14.466Z,13.40
2019-06-01T03:41:43.107Z,13.50
2019-06-01T03:44:12.989Z,13.50
2019-06-01T03:46:41.966Z,13.60
2019-06-01T03:49:11.844Z,13.60
2019-06-01T03:51:41.375Z,13.70
2019-06-01T03:54:10.253Z,13.80
2019-06-01T03:56:38.904Z,13.90
2019-06-01T03:59:07.527Z,13.90
2019-06-01T04:01:36.193Z,14.00
2019-06-01T04:04:05.273Z,14.00
2019-06-01T04:06:33.895Z,14.10
2019-06-01T04:09:05.570Z,14.10
2019-06-01T04:11:34.677Z,14.00
2019-06-01T04:14:04.179Z,14.00
2019-06-01T04:16:32.780Z,14.00
2019-06-01T04:19:01.700Z,14.10
2019-06-01T04:21:30.342Z,14.10
2019-06-01T04:23:58.938Z,14.20
2019-06-01T04:26:27.730Z,14.30
2019-06-01T04:28:56.250Z,14.40
2019-06-01T04:31:25.099Z,14.60
2019-06-01T04:33:53.661Z,14.80
2019-06-01T04:36:22.229Z,15.00
2019-06-01T04:38:51.033Z,15.20
2019-06-01T04:41:19.657Z,15.50
2019-06-01T04:43:48.206Z,15.70
2019-06-01T04:46:16.793Z,15.80
2019-06-01T04:48:45.344Z,15.90
2019-06-01T04:51:14.962Z,15.90
2019-06-01T04:53:44.258Z,15.90
2019-06-01T04:56:13.110Z,15.70
2019-06-01T04:58:41.701Z,15.60
2019-06-01T05:01:10.931Z,15.50
2019-06-01T05:03:39.569Z,15.50
2019-06-01T05:06:09.261Z,15.60
2019-06-01T05:08:37.911Z,15.80
2019-06-01T05:11:08.285Z,15.80
2019-06-01T05:13:36.769Z,15.70
2019-06-01T05:16:06.357Z,15.90
2019-06-01T05:18:34.986Z,16.00
2019-06-01T05:21:03.545Z,16.00
2019-06-01T05:23:32.221Z,16.10
2019-06-01T05:26:00.784Z,16.20
2019-06-01T05:28:29.326Z,16.30
2019-06-01T05:30:58.047Z,16.60
2019-06-01T05:33:36.821Z,16.90
2019-06-01T05:35:57.597Z,17.00
2019-06-01T05:38:26.213Z,17.20
2019-06-01T05:40:54.699Z,17.00
2019-06-01T05:43:23.278Z,16.80
2019-06-01T05:45:51.842Z,16.70
2019-06-01T05:48:25.002Z,16.70
2019-06-01T05:50:50.634Z,16.70
2019-06-01T05:53:20.035Z,16.80
2019-06-01T05:55:48.696Z,17.10
2019-06-01T05:58:17.377Z,17.60
2019-06-01T06:00:46.906Z,17.70
2019-06-01T06:03:20.239Z,17.80
2019-06-01T06:05:45.684Z,17.90
2019-06-01T06:08:14.452Z,18.20
2019-06-01T06:10:43.386Z,18.50
2019-06-01T06:13:13.240Z,18.70
2019-06-01T06:15:41.974Z,18.80
2019-06-01T06:18:11.596Z,18.90
2019-06-01T06:20:40.300Z,18.70
2019-06-01T06:23:08.987Z,18.40
2019-06-01T06:25:41.492Z,18.70
2019-06-01T06:28:10.121Z,18.90
2019-06-01T06:30:38.735Z,18.80
2019-06-01T06:33:07.284Z,18.60
2019-06-01T06:35:35.879Z,18.50
2019-06-01T06:38:04.555Z,18.90
2019-06-01T06:40:33.343Z,19.20
2019-06-01T06:43:02.026Z,19.20
2019-06-01T06:45:30.586Z,19.70
2019-06-01T06:47:59.146Z,19.90
2019-06-01T06:50:27.864Z,20.30
2019-06-01T06:52:59.688Z,20.00
2019-06-01T06:55:28.304Z,19.80
2019-06-01T06:57:56.884Z,20.00
2019-06-01T07:00:26.871Z,19.50
2019-06-01T07:02:55.681Z,19.20
2019-06-01T07:05:25.420Z,19.10
2019-06-01T07:07:56.731Z,19.00
2019-06-01T07:10:26.332Z,19.10
2019-06-01T07:12:54.948Z,19.10
2019-06-01T07:15:23.824Z,19.00
2019-06-01T07:17:52.384Z,19.10
2019-06-01T07:20:21.525Z,19.10
2019-06-01T07:22:50.192Z,19.10
2019-06-01T07:25:19.651Z,19.10
2019-06-01T07:27:48.348Z,19.00
2019-06-01T07:30:17.515Z,19.00
2019-06-01T07:32:46.075Z,19.10
2019-06-01T07:35:14.745Z,19.20
2019-06-01T07:37:43.346Z,19.70
2019-06-01T07:40:13.687Z,20.00
2019-06-01T07:42:42.368Z,19.50
2019-06-01T07:45:11.006Z,19.50
2019-06-01T07:47:39.583Z,19.50
2019-06-01T07:50:08.392Z,19.40
2019-06-01T07:52:37.006Z,19.50
2019-06-01T07:55:06.620Z,19.50
2019-06-01T07:57:35.176Z,19.50
2019-06-01T08:00:07.180Z,19.50
2019-06-01T08:02:35.694Z,20.00
2019-06-01T08:05:07.347Z,21.10
2019-06-01T08:07:35.937Z,21.50
2019-06-01T08:10:07.737Z,22.00
2019-06-01T08:12:42.346Z,22.40
2019-06-01T08:15:08.716Z,22.30
2019-06-01T08:17:37.279Z,21.40
2019-06-01T08:20:07.225Z,21.50
2019-06-01T08:22:36.057Z,22.10
2019-06-01T08:25:06.252Z,22.20
2019-06-01T08:27:34.749Z,22.10
2019-06-01T08:30:05.186Z,21.90
2019-06-01T08:32:33.727Z,22.10
2019-06-01T08:35:08.445Z,21.90
2019-06-01T08:37:33.585Z,21.60
2019-06-01T08:40:02.272Z,21.60
2019-06-01T08:42:31.588Z,21.50
2019-06-01T08:45:00.308Z,21.90
2019-06-01T08:47:29.993Z,22.70
2019-06-01T08:49:58.706Z,23.40
2019-06-01T08:52:28.080Z,23.20
2019-06-01T08:54:56.776Z,23.00
2019-06-01T08:57:26.108Z,23.50
2019-06-01T08:59:54.761Z,23.80
2019-06-01T09:02:24.444Z,24.20
2019-06-01T09:04:53.191Z,23.60
2019-06-01T09:07:21.781Z,22.90
2019-06-01T09:09:50.342Z,22.00
2019-06-01T09:12:18.899Z,21.60
2019-06-01T09:14:47.606Z,21.90
2019-06-01T09:17:18.706Z,22.70
2019-06-01T09:19:46.294Z,23.20
2019-06-01T09:22:14.820Z,23.50
2019-06-01T09:24:43.535Z,24.00
2019-06-01T09:27:12.236Z,24.00
2019-06-01T09:29:44.546Z,24.10
2019-06-01T09:32:11.588Z,23.70
2019-06-01T09:34:40.247Z,24.00
2019-06-01T09:37:08.840Z,23.60
2019-06-01T09:39:37.452Z,23.40
2019-06-01T09:42:05.963Z,23.90
2019-06-01T09:44:35.243Z,24.30
2019-06-01T09:47:03.829Z,24.00
2019-06-01T09:49:34.006Z,23.90
2019-06-01T09:52:03.070Z,24.20
2019-06-01T09:54:33.205Z,24.40
2019-06-01T09:57:02.016Z,24.20
2019-06-01T09:59:31.851Z,23.80
2019-06-01T10:02:00.570Z,23.20
2019-06-01T10:04:30.208Z,22.60
2019-06-01T10:06:58.840Z,22.20
2019-06-01T10:09:27.406Z,22.60
2019-06-01T10:11:56.230Z,23.50
2019-06-01T10:14:24.920Z,24.00
2019-06-01T10:16:53.449Z,23.30
2019-06-01T10:19:22.706Z,23.20
2019-06-01T10:21:51.389Z,22.70
2019-06-01T10:24:20.017Z,22.30
2019-06-01T10:26:48.578Z,22.20
2019-06-01T10:29:17.410Z,22.70
2019-06-01T10:31:46.026Z,23.20
2019-06-01T10:34:14.576Z,23.30
2019-06-01T10:36:43.464Z,23.60
2019-06-01T10:39:11.954Z,23.90
2019-06-01T10:41:41.505Z,24.20
2019-06-01T10:44:10.187Z,24.30
2019-06-01T10:46:40.147Z,23.60
2019-06-01T10:49:08.869Z,24.20
2019-06-01T10:51:38.293Z,23.70
2019-06-01T10:54:06.930Z,23.90
2019-06-01T10:56:36.279Z,23.20
2019-06-01T10:59:05.858Z,23.00
2019-06-01T11:01:35.883Z,23.60
2019-06-01T11:04:04.861Z,23.20
2019-06-01T11:06:38.812Z,24.00
2019-06-01T11:09:05.270Z,24.40
2019-06-01T11:11:35.100Z,23.90
2019-06-01T11:14:03.839Z,24.30
2019-06-01T11:16:32.946Z,24.60
2019-06-01T11:19:02.115Z,23.50
2019-06-01T11:21:30.767Z,24.00
2019-06-01T11:23:59.403Z,23.80
2019-06-01T11:26:28.026Z,24.00
2019-06-01T11:28:56.694Z,24.70
2019-06-01T11:31:25.405Z,24.20
2019-06-01T11:33:55.314Z,24.50
2019-06-01T11:36:23.924Z,24.80
2019-06-01T11:38:52.712Z,24.30
2019-06-01T11:41:22.181Z,24.40
2019-06-01T11:43:52.065Z,24.70
2019-06-01T11:46:20.685Z,24.50
2019-06-01T11:48:49.416Z,24.20
2019-06-01T11:51:18.238Z,24.10
2019-06-01T11:53:46.977Z,24.40
2019-06-01T11:56:15.625Z,24.90
2019-06-01T11:58:45.623Z,24.50
2019-06-01T12:01:14.441Z,24.50
2019-06-01T12:03:43.969Z,25.10
2019-06-01T12:06:12.604Z,25.00
2019-06-01T12:08:42.250Z,24.70
2019-06-01T12:11:11.019Z,24.60
2019-06-01T12:13:40.135Z,24.00
2019-06-01T12:16:08.854Z,24.00
2019-06-01T12:18:38.466Z,24.60
2019-06-01T12:21:08.752Z,24.80
2019-06-01T12:23:37.461Z,24.80
2019-06-01T12:26:06.194Z,23.90
2019-06-01T12:28:34.786Z,23.50
2019-06-01T12:31:03.350Z,23.00
2019-06-01T12:33:31.888Z,22.80
2019-06-01T12:36:00.497Z,22.80
2019-06-01T12:38:29.133Z,23.00
2019-06-01T12:40:57.688Z,23.70
2019-06-01T12:43:26.401Z,24.20
2019-06-01T12:46:06.648Z,24.30
2019-06-01T12:48:25.219Z,24.50
2019-06-01T12:50:53.858Z,24.80
2019-06-01T12:53:22.515Z,25.00
2019-06-01T12:55:51.089Z,25.20
2019-06-01T12:58:19.703Z,25.00
2019-06-01T13:00:48.405Z,24.40
2019-06-01T13:03:17.110Z,24.00
2019-06-01T13:05:45.751Z,23.90
2019-06-01T13:08:14.303Z,23.80
2019-06-01T13:10:43.084Z,24.20
2019-06-01T13:13:11.747Z,24.20
2019-06-01T13:15:41.179Z,24.40
2019-06-01T13:18:09.854Z,24.60
2019-06-01T13:20:38.454Z,24.80
2019-06-01T13:23:07.007Z,24.90
2019-06-01T13:25:35.566Z,25.10
2019-06-01T13:28:04.479Z,24.30
2019-06-01T13:30:32.966Z,24.00
2019-06-01T13:33:01.533Z,23.10
2019-06-01T13:35:30.126Z,23.20
2019-06-01T13:38:11.845Z,23.20
2019-06-01T13:40:28.821Z,23.20
2019-06-01T13:42:57.411Z,23.00
2019-06-01T13:45:25.978Z,23.00
2019-06-01T13:47:54.504Z,23.00
2019-06-01T13:50:23.167Z,23.20
2019-06-01T13:52:52.166Z,23.20
2019-06-01T13:55:20.841Z,23.60
2019-06-01T13:57:50.412Z,23.30
2019-06-01T14:00:29.815Z,23.20
2019-06-01T14:02:53.713Z,23.00
2019-06-01T14:05:19.749Z,23.10
2019-06-01T14:07:49.384Z,23.10
2019-06-01T14:10:19.291Z,23.40
2019-06-01T14:12:49.359Z,23.50
2019-06-01T14:15:18.209Z,23.40
2019-06-01T14:17:48.026Z,23.60
2019-06-01T14:20:17.124Z,23.60
2019-06-01T14:22:45.847Z,23.40
2019-06-01T14:25:15.310Z,22.80
2019-06-01T14:27:44.033Z,22.70
2019-06-01T14:30:12.981Z,22.80
2019-06-01T14:32:41.676Z,22.70
2019-06-01T14:35:10.962Z,22.30
2019-06-01T14:37:39.726Z,22.40
2019-06-01T14:40:08.716Z,22.30
2019-06-01T14:42:37.346Z,22.20
2019-06-01T14:45:09.254Z,22.10
2019-06-01T14:47:37.874Z,22.00
2019-06-01T14:50:07.915Z,22.00
2019-06-01T14:52:36.597Z,22.00
2019-06-01T14:55:08.612Z,22.30
2019-06-01T14:57:37.219Z,22.40
2019-06-01T15:00:10.875Z,22.50
2019-06-01T15:02:39.491Z,22.90
2019-06-01T15:05:08.464Z,23.30
2019-06-01T15:07:37.044Z,23.70
2019-06-01T15:10:09.316Z,23.90
2019-06-01T15:12:37.991Z,24.20
2019-06-01T15:15:09.869Z,24.80
2019-06-01T15:17:38.374Z,24.80
2019-06-01T15:20:08.647Z,24.60
2019-06-01T15:22:37.345Z,24.30
2019-06-01T15:25:07.332Z,24.00
2019-06-01T15:27:36.045Z,23.80
2019-06-01T15:30:10.552Z,23.50
2019-06-01T15:32:39.093Z,22.50
2019-06-01T15:35:10.500Z,22.10
2019-06-01T15:37:39.063Z,21.90
2019-06-01T15:40:09.047Z,22.00
2019-06-01T15:42:38.036Z,21.80
2019-06-01T15:45:08.443Z,21.90
2019-06-01T15:47:36.998Z,21.80
2019-06-01T15:50:07.776Z,21.90
2019-06-01T15:52:36.419Z,21.70
2019-06-01T15:55:07.589Z,21.70
2019-06-01T15:57:36.182Z,21.60
2019-06-01T16:00:07.379Z,21.50
2019-06-01T16:02:36.203Z,21.60
2019-06-01T16:05:06.807Z,21.70
2019-06-01T16:07:35.436Z,21.70
2019-06-01T16:10:08.351Z,21.60
2019-06-01T16:12:37.036Z,21.80
2019-06-01T16:15:08.015Z,22.00
2019-06-01T16:17:36.559Z,21.90
2019-06-01T16:20:08.570Z,22.20
2019-06-01T16:22:37.168Z,22.10
2019-06-01T16:25:09.158Z,22.20
2019-06-01T16:27:37.824Z,22.20
2019-06-01T16:30:10.381Z,22.10
2019-06-01T16:32:39.819Z,22.60
2019-06-01T16:35:08.723Z,22.30
2019-06-01T16:37:37.421Z,22.10
2019-06-01T16:40:10.364Z,22.30
2019-06-01T16:42:38.154Z,22.10
2019-06-01T16:45:07.591Z,21.90
2019-06-01T16:47:36.289Z,21.70
2019-06-01T16:50:07.434Z,21.70
2019-06-01T16:52:35.970Z,21.60
2019-06-01T16:55:07.118Z,21.40
2019-06-01T16:57:35.953Z,21.30
2019-06-01T17:00:07.623Z,21.20
2019-06-01T17:02:36.217Z,21.10
2019-06-01T17:05:07.020Z,20.90
2019-06-01T17:07:36.519Z,21.00
2019-06-01T17:10:24.974Z,21.10
2019-06-01T17:12:43.323Z,21.20
2019-06-01T17:15:13.277Z,21.20
2019-06-01T17:17:41.816Z,21.40
2019-06-01T17:20:32.801Z,21.30
2019-06-01T17:23:06.051Z,21.30
2019-06-01T17:25:31.622Z,21.30
2019-06-01T17:28:00.304Z,21.90
2019-06-01T17:30:29.088Z,22.70
2019-06-01T17:32:58.204Z,22.10
2019-06-01T17:35:26.891Z,22.00
2019-06-01T17:37:55.456Z,21.80
2019-06-01T17:40:36.642Z,22.00
2019-06-01T17:42:54.464Z,21.70
2019-06-01T17:45:23.036Z,21.40
2019-06-01T17:47:52.474Z,21.20
2019-06-01T17:50:21.714Z,21.00
2019-06-01T17:52:50.398Z,20.90
2019-06-01T17:55:36.854Z,20.70
2019-06-01T17:58:07.700Z,20.50
2019-06-01T18:00:36.747Z,20.30
2019-06-01T18:03:06.171Z,20.30
2019-06-01T18:05:36.226Z,20.20
2019-06-01T18:08:06.161Z,20.10
2019-06-01T18:10:50.241Z,20.00
2019-06-01T18:13:06.426Z,20.00
2019-06-01T18:15:35.116Z,19.80
2019-06-01T18:18:04.619Z,19.70
2019-06-01T18:20:33.579Z,19.50
2019-06-01T18:23:02.371Z,19.40
2019-06-01T18:25:31.122Z,19.20
2019-06-01T18:27:59.724Z,18.90
2019-06-01T18:30:28.618Z,18.60
2019-06-01T18:32:57.978Z,18.30
2019-06-01T18:35:26.727Z,18.20
2019-06-01T18:37:55.352Z,18.10
2019-06-01T18:40:25.244Z,17.90
2019-06-01T18:43:06.169Z,17.70
2019-06-01T18:45:35.247Z,17.60
2019-06-01T18:48:04.467Z,17.40
2019-06-01T18:50:34.780Z,17.30
2019-06-01T18:53:05.835Z,17.30
2019-06-01T18:55:35.763Z,17.30
2019-06-01T18:58:06.329Z,17.30
2019-06-01T19:00:39.627Z,17.20
2019-06-01T19:03:07.054Z,17.10
2019-06-01T19:05:36.195Z,17.00
2019-06-01T19:08:05.165Z,16.90
2019-06-01T19:10:34.201Z,16.80
2019-06-01T19:13:02.918Z,16.80
2019-06-01T19:15:31.594Z,16.70
2019-06-01T19:18:00.261Z,16.60
2019-06-01T19:20:28.887Z,16.60
2019-06-01T19:22:57.553Z,16.50
2019-06-01T19:25:32.199Z,16.50
2019-06-01T19:27:58.086Z,16.40
2019-06-01T19:30:41.026Z,16.40
2019-06-01T19:33:14.165Z,16.30
2019-06-01T19:35:46.002Z,16.30
2019-06-01T19:38:15.473Z,16.40
2019-06-01T19:40:44.593Z,16.30
2019-06-01T19:43:15.678Z,16.30
2019-06-01T19:45:46.123Z,16.30
2019-06-01T19:48:18.616Z,16.30
2019-06-01T19:50:54.403Z,16.20
2019-06-01T19:53:23.101Z,16.20
2019-06-01T19:55:51.768Z,16.10
2019-06-01T19:58:20.447Z,16.10
2019-06-01T20:00:49.141Z,16.00
2019-06-01T20:03:20.666Z,16.00
2019-06-01T20:05:50.634Z,16.00
2019-06-01T20:08:22.639Z,16.00
2019-06-01T20:10:51.306Z,15.90
2019-06-01T20:13:21.437Z,16.00
2019-06-01T20:15:50.466Z,16.20
2019-06-01T20:18:19.202Z,16.40
2019-06-01T20:20:49.558Z,16.40
2019-06-01T20:23:19.409Z,16.60
2019-06-01T20:25:48.301Z,16.60
2019-06-01T20:28:17.491Z,16.80
2019-06-01T20:30:46.286Z,16.90
2019-06-01T20:33:15.963Z,16.90
2019-06-01T20:35:44.851Z,16.90
2019-06-01T20:38:14.384Z,16.70
2019-06-01T20:40:43.101Z,16.50
2019-06-01T20:43:12.324Z,16.40
2019-06-01T20:45:41.042Z,16.50
2019-06-01T20:48:10.503Z,16.40
2019-06-01T20:50:42.152Z,16.50
2019-06-01T20:53:10.697Z,16.40
2019-06-01T20:55:42.010Z,16.40
2019-06-01T20:58:13.793Z,16.20
2019-06-01T21:00:42.454Z,15.90
2019-06-01T21:03:11.136Z,15.70
2019-06-01T21:05:40.354Z,15.60
2019-06-01T21:08:08.916Z,15.50
2019-06-01T21:10:37.489Z,15.40
2019-06-01T21:13:08.024Z,15.30
2019-06-01T21:15:37.154Z,15.20
2019-06-01T21:18:05.794Z,15.10
2019-06-01T21:20:34.489Z,15.10
2019-06-01T21:23:03.134Z,15.10
2019-06-01T21:25:31.805Z,15.10
2019-06-01T21:28:00.394Z,15.10
2019-06-01T21:30:28.944Z,15.00
2019-06-01T21:32:57.530Z,15.00
2019-06-01T21:35:26.179Z,15.00
2019-06-01T21:37:54.768Z,14.90
2019-06-01T21:40:23.586Z,14.80
2019-06-01T21:43:03.079Z,14.70
2019-06-01T21:45:23.747Z,14.70
2019-06-01T21:47:55.052Z,14.80
2019-06-01T21:50:24.012Z,14.80
2019-06-01T21:52:52.713Z,14.80
2019-06-01T21:55:22.268Z,14.90
2019-06-01T21:57:50.964Z,15.00
2019-06-01T22:00:35.902Z,15.00
2019-06-01T22:03:05.248Z,15.00
2019-06-01T22:05:33.837Z,15.00
2019-06-01T22:08:02.430Z,14.90
2019-06-01T22:10:31.177Z,14.90
2019-06-01T22:12:59.765Z,14.80
2019-06-01T22:15:28.354Z,15.00
2019-06-01T22:17:58.560Z,15.10
2019-06-01T22:20:28.194Z,15.10
2019-06-01T22:22:56.961Z,15.10
2019-06-01T22:25:25.970Z,15.10
2019-06-01T22:27:54.612Z,15.00
2019-06-01T22:30:24.796Z,15.00
2019-06-01T22:32:54.215Z,15.00
2019-06-01T22:35:34.601Z,14.90
2019-06-01T22:38:01.843Z,14.80
2019-06-01T22:40:34.127Z,14.70
2019-06-01T22:43:02.744Z,14.70
2019-06-01T22:45:31.303Z,14.70
2019-06-01T22:47:59.873Z,14.60
2019-06-01T22:50:29.088Z,14.70
2019-06-01T22:52:57.701Z,14.60
2019-06-01T22:55:29.042Z,14.60
2019-06-01T22:57:57.633Z,14.70
2019-06-01T23:00:27.723Z,14.60
2019-06-01T23:02:58.634Z,14.60
2019-06-01T23:05:27.262Z,14.50
2019-06-01T23:07:55.798Z,14.50
2019-06-01T23:10:30.058Z,14.50
2019-06-01T23:12:55.480Z,14.60
2019-06-01T23:15:24.114Z,14.60
2019-06-01T23:17:52.832Z,14.60
2019-06-01T23:20:21.773Z,14.60
2019-06-01T23:22:50.476Z,14.60
2019-06-01T23:25:19.040Z,14.50
2019-06-01T23:27:47.791Z,14.50
2019-06-01T23:30:16.756Z,14.50
2019-06-01T23:32:45.311Z,14.40
2019-06-01T23:35:14.166Z,14.40
2019-06-01T23:37:42.847Z,14.40
2019-06-01T23:40:13.184Z,14.40
2019-06-01T23:42:41.773Z,14.40
2019-06-01T23:45:10.399Z,14.40
2019-06-01T23:47:38.909Z,14.40
2019-06-01T23:50:07.848Z,14.30
2019-06-01T23:52:36.391Z,14.30
2019-06-01T23:55:06.646Z,14.30
2019-06-01T23:57:35.808Z,14.40
